createdAt,value
2022-12-27T00:01:42.971Z,9.54
2022-12-27T00:04:20.513Z,9.67
2022-12-27T00:06:52.417Z,9.69
2022-12-27T00:09:23.342Z,9.81
2022-12-27T00:12:01.511Z,9.39
2022-12-27T00:14:33.191Z,9.35
2022-12-27T00:17:03.002Z,9.44
2022-12-27T00:19:31.361Z,9.42
2022-12-27T00:21:59.880Z,9.29
2022-12-27T00:24:29.678Z,9.72
2022-12-27T00:26:58.214Z,9.34
2022-12-27T00:29:26.470Z,9.43
2022-12-27T00:31:55.005Z,9.44
2022-12-27T00:34:23.438Z,9.40
2022-12-27T00:36:52.168Z,9.51
2022-12-27T00:39:20.451Z,9.46
2022-12-27T00:41:50.651Z,9.78
2022-12-27T00:44:19.096Z,9.42
2022-12-27T00:46:47.794Z,9.44
2022-12-27T00:49:16.117Z,9.34
2022-12-27T00:51:45.127Z,9.31
2022-12-27T00:54:13.437Z,9.34
2022-12-27T00:56:42.203Z,9.52
2022-12-27T00:59:13.471Z,9.64
2022-12-27T01:01:42.612Z,9.59
2022-12-27T01:04:13.455Z,9.91
2022-12-27T01:06:42.420Z,9.57
2022-12-27T01:09:10.688Z,9.43
2022-12-27T01:11:41.357Z,9.73
2022-12-27T01:14:09.604Z,9.57
2022-12-27T01:16:40.770Z,9.77
2022-12-27T01:19:09.101Z,9.51
2022-12-27T01:21:37.664Z,9.49
2022-12-27T01:24:07.318Z,9.78
2022-12-27T01:26:35.996Z,9.53
2022-12-27T01:29:04.298Z,9.69
2022-12-27T01:31:32.902Z,9.64
2022-12-27T01:34:04.538Z,9.96
2022-12-27T01:36:33.193Z,9.51
2022-12-27T01:39:01.809Z,9.78
2022-12-27T01:41:49.879Z,9.99
2022-12-27T01:45:02.706Z,10.60
2022-12-27T01:47:38.340Z,10.30
2022-12-27T01:50:16.569Z,10.32
2022-12-27T01:52:49.530Z,10.17
2022-12-27T01:55:23.279Z,10.10
2022-12-27T01:57:54.406Z,9.96
2022-12-27T02:00:22.804Z,9.62
2022-12-27T02:02:52.160Z,9.75
2022-12-27T02:05:23.548Z,9.83
2022-12-27T02:07:59.611Z,9.86
2022-12-27T02:10:29.706Z,9.64
2022-12-27T02:12:58.972Z,9.52
2022-12-27T02:15:27.197Z,9.33
2022-12-27T02:17:55.787Z,9.34
2022-12-27T02:20:27.230Z,9.66
2022-12-27T02:24:04.582Z,9.93
2022-12-27T02:26:40.500Z,9.66
2022-12-27T02:29:28.754Z,9.66
2022-12-27T02:32:00.803Z,9.55
2022-12-27T02:34:35.296Z,9.27
2022-12-27T02:37:06.336Z,9.32
2022-12-27T02:39:38.387Z,9.23
2022-12-27T02:42:24.934Z,9.14
2022-12-27T02:45:14.550Z,9.18
2022-12-27T02:48:01.033Z,9.06
2022-12-27T02:50:54.035Z,9.26
2022-12-27T02:53:32.063Z,9.37
2022-12-27T02:56:27.443Z,9.27
2022-12-27T02:59:05.022Z,9.13
2022-12-27T03:02:00.837Z,9.22
2022-12-27T03:04:45.150Z,9.29
2022-12-27T03:07:27.833Z,9.45
2022-12-27T03:10:33.359Z,9.66
2022-12-27T03:13:28.858Z,9.61
2022-12-27T03:16:06.762Z,9.66
2022-12-27T03:18:47.883Z,9.72
2022-12-27T03:21:37.723Z,9.63
2022-12-27T03:24:36.002Z,9.44
2022-12-27T03:27:07.344Z,9.55
2022-12-27T03:29:53.219Z,9.23
2022-12-27T03:32:40.133Z,9.38
2022-12-27T03:35:14.751Z,9.30
2022-12-27T03:38:05.693Z,9.25
2022-12-27T03:40:41.234Z,9.28
2022-12-27T03:43:13.994Z,9.28
2022-12-27T03:46:09.954Z,9.14
2022-12-27T03:48:45.384Z,9.01
2022-12-27T03:51:16.496Z,9.05
2022-12-27T03:53:46.515Z,9.01
2022-12-27T03:56:15.018Z,8.48
2022-12-27T03:58:43.403Z,8.51
2022-12-27T04:01:11.998Z,8.31
2022-12-27T04:03:40.485Z,8.38
2022-12-27T04:06:09.232Z,8.24
2022-12-27T04:08:56.247Z,8.52
2022-12-27T04:11:42.324Z,8.15
2022-12-27T04:14:28.047Z,8.18
2022-12-27T04:17:14.266Z,7.99
2022-12-27T04:20:00.309Z,7.77
2022-12-27T04:22:46.434Z,7.72
2022-12-27T04:25:33.416Z,7.72
2022-12-27T04:28:19.729Z,7.43
2022-12-27T04:31:05.417Z,7.23
2022-12-27T04:33:51.527Z,7.25
2022-12-27T04:36:19.952Z,7.20
2022-12-27T04:38:48.636Z,6.99
2022-12-27T04:41:36.335Z,7.47
2022-12-27T04:44:22.714Z,7.21
2022-12-27T04:47:08.309Z,7.25
2022-12-27T04:49:59.889Z,7.30
2022-12-27T04:52:45.661Z,7.38
2022-12-27T04:55:19.538Z,7.68
2022-12-27T04:57:49.739Z,7.19
2022-12-27T05:00:36.625Z,7.20
2022-12-27T05:03:06.967Z,7.49
2022-12-27T05:05:36.150Z,7.24
2022-12-27T05:08:22.656Z,7.19
2022-12-27T05:11:08.622Z,7.13
2022-12-27T05:13:55.888Z,7.52
2022-12-27T05:16:26.655Z,7.31
2022-12-27T05:18:55.245Z,7.26
2022-12-27T05:21:23.877Z,7.09
2022-12-27T05:24:10.106Z,7.03
2022-12-27T05:26:39.580Z,7.06
2022-12-27T05:29:10.123Z,7.14
2022-12-27T05:31:38.773Z,6.64
2022-12-27T05:34:07.617Z,6.93
2022-12-27T05:36:36.144Z,6.82
2022-12-27T05:39:04.566Z,6.75
2022-12-27T05:41:33.324Z,6.56
2022-12-27T05:44:06.750Z,6.54
2022-12-27T05:46:37.726Z,6.77
2022-12-27T05:49:06.065Z,6.59
2022-12-27T05:51:34.667Z,6.48
2022-12-27T05:54:03.026Z,6.49
2022-12-27T05:56:31.659Z,6.24
2022-12-27T05:58:59.874Z,6.26
2022-12-27T06:01:28.560Z,6.37
2022-12-27T06:03:58.382Z,6.69
2022-12-27T06:06:27.320Z,6.43
2022-12-27T06:08:56.375Z,6.27
2022-12-27T06:11:24.923Z,6.06
2022-12-27T06:13:55.229Z,6.33
2022-12-27T06:16:24.497Z,5.94
2022-12-27T06:18:52.785Z,5.60
2022-12-27T06:21:23.142Z,5.98
2022-12-27T06:23:51.770Z,5.78
2022-12-27T06:26:22.312Z,5.86
2022-12-27T06:28:50.983Z,5.61
2022-12-27T06:31:20.887Z,5.71
2022-12-27T06:33:50.015Z,5.62
2022-12-27T06:36:20.677Z,5.72
2022-12-27T06:38:50.407Z,5.85
2022-12-27T06:41:20.172Z,5.86
2022-12-27T06:43:48.964Z,5.62
2022-12-27T06:46:19.273Z,5.84
2022-12-27T06:48:48.060Z,5.76
2022-12-27T06:51:19.023Z,5.98
2022-12-27T06:53:47.477Z,5.60
2022-12-27T06:56:19.453Z,5.72
2022-12-27T06:58:48.622Z,5.55
2022-12-27T07:01:19.481Z,5.74
2022-12-27T07:03:50.897Z,5.76
2022-12-27T07:06:19.849Z,5.48
2022-12-27T07:08:48.951Z,5.38
2022-12-27T07:11:20.343Z,5.52
2022-12-27T07:13:51.429Z,5.30
2022-12-27T07:16:22.625Z,5.26
2022-12-27T07:18:51.141Z,4.98
2022-12-27T07:21:22.018Z,4.90
2022-12-27T07:23:50.842Z,4.91
2022-12-27T07:26:22.843Z,5.23
2022-12-27T07:28:51.562Z,4.88
2022-12-27T07:31:23.372Z,5.16
2022-12-27T07:33:52.530Z,5.33
2022-12-27T07:36:22.827Z,6.08
2022-12-27T07:38:51.167Z,6.22
2022-12-27T07:41:22.077Z,6.62
2022-12-27T07:43:50.669Z,6.26
2022-12-27T07:46:21.812Z,6.37
2022-12-27T07:48:50.791Z,6.18
2022-12-27T07:51:20.211Z,6.16
2022-12-27T07:53:50.123Z,6.36
2022-12-27T07:56:26.146Z,6.69
2022-12-27T07:58:56.121Z,6.80
2022-12-27T08:01:25.787Z,6.88
2022-12-27T08:03:54.543Z,6.96
2022-12-27T08:06:25.230Z,7.18
2022-12-27T08:08:54.860Z,6.99
2022-12-27T08:11:26.846Z,7.03
2022-12-27T08:13:55.679Z,6.75
2022-12-27T08:16:26.550Z,6.71
2022-12-27T08:18:55.237Z,6.54
2022-12-27T08:21:24.378Z,6.62
2022-12-27T08:23:53.545Z,6.93
2022-12-27T08:26:22.431Z,8.03
2022-12-27T08:28:52.544Z,9.63
2022-12-27T08:31:21.384Z,10.31
2022-12-27T08:33:56.536Z,11.89
2022-12-27T08:39:16.785Z,13.01
2022-12-27T08:41:45.628Z,11.92
2022-12-27T08:44:16.615Z,11.13
2022-12-27T08:46:45.516Z,10.57
2022-12-27T08:49:14.096Z,10.82
2022-12-27T08:51:43.058Z,11.10
2022-12-27T08:54:11.882Z,12.20
2022-12-27T08:56:40.477Z,12.35
2022-12-27T08:59:09.075Z,12.85
2022-12-27T09:01:39.459Z,14.65
2022-12-27T09:04:08.206Z,15.68
2022-12-27T09:06:37.023Z,16.45
2022-12-27T09:09:05.677Z,17.31
2022-12-27T09:11:35.818Z,17.39
2022-12-27T09:14:05.902Z,16.89
2022-12-27T09:16:35.790Z,16.57
2022-12-27T09:19:06.036Z,17.39
2022-12-27T09:21:35.219Z,18.49
2022-12-27T09:24:03.906Z,19.49
2022-12-27T09:26:32.697Z,19.27
2022-12-27T09:29:01.733Z,19.80
2022-12-27T09:31:31.075Z,18.81
2022-12-27T09:33:59.834Z,17.46
2022-12-27T09:36:30.869Z,17.14
2022-12-27T09:38:59.879Z,15.87
2022-12-27T09:44:34.762Z,15.70
2022-12-27T09:47:06.601Z,15.55
2022-12-27T09:49:37.690Z,15.49
2022-12-27T09:52:08.490Z,16.66
2022-12-27T09:54:40.296Z,17.28
2022-12-27T09:57:20.199Z,18.09
2022-12-27T09:59:51.160Z,18.74
2022-12-27T10:02:23.037Z,19.50
2022-12-27T10:05:19.298Z,20.41
2022-12-27T10:07:50.307Z,21.23
2022-12-27T10:10:26.558Z,21.28
2022-12-27T10:13:06.748Z,22.00
2022-12-27T10:15:44.203Z,22.47
2022-12-27T10:18:20.175Z,22.95
2022-12-27T10:20:56.783Z,23.62
2022-12-27T10:23:30.369Z,23.67
2022-12-27T10:26:01.813Z,23.74
2022-12-27T10:28:37.812Z,23.81
2022-12-27T10:31:06.770Z,23.66
2022-12-27T10:33:36.547Z,23.41
2022-12-27T10:36:10.860Z,23.16
2022-12-27T10:38:40.823Z,23.03
2022-12-27T10:41:23.944Z,23.28
2022-12-27T10:43:54.236Z,22.88
2022-12-27T10:46:30.684Z,22.99
2022-12-27T10:51:52.595Z,22.58
2022-12-27T10:54:25.654Z,21.95
2022-12-27T10:56:54.729Z,20.75
2022-12-27T10:59:24.900Z,20.89
2022-12-27T11:02:17.388Z,22.14
2022-12-27T11:05:00.208Z,22.25
2022-12-27T11:07:33.268Z,20.20
2022-12-27T11:10:17.299Z,18.23
2022-12-27T11:13:03.126Z,16.89
2022-12-27T11:15:33.300Z,16.11
2022-12-27T11:18:03.314Z,15.53
2022-12-27T11:20:33.796Z,15.08
2022-12-27T11:23:04.553Z,14.61
2022-12-27T11:25:35.383Z,13.94
2022-12-27T11:28:06.187Z,13.38
2022-12-27T11:30:36.732Z,12.81
2022-12-27T11:33:06.990Z,12.31
2022-12-27T11:35:38.316Z,12.08
2022-12-27T11:38:06.846Z,11.52
2022-12-27T11:40:37.008Z,11.41
2022-12-27T11:43:08.367Z,11.08
2022-12-27T11:45:40.349Z,10.75
2022-12-27T11:48:22.365Z,10.55
2022-12-27T11:51:18.792Z,10.55
2022-12-27T11:54:06.898Z,10.33
2022-12-27T11:56:38.553Z,10.37
2022-12-27T11:59:33.389Z,10.77
2022-12-27T12:02:29.218Z,10.46
2022-12-27T12:05:31.572Z,10.36
2022-12-27T12:08:12.653Z,10.01
2022-12-27T12:10:49.184Z,9.83
2022-12-27T12:13:33.472Z,9.65
2022-12-27T12:16:28.212Z,9.39
2022-12-27T12:19:20.838Z,9.32
2022-12-27T12:22:00.161Z,9.14
2022-12-27T12:24:40.825Z,9.16
2022-12-27T12:27:26.155Z,9.10
2022-12-27T12:30:16.827Z,9.07
2022-12-27T12:32:57.387Z,8.96
2022-12-27T12:35:33.685Z,8.89
2022-12-27T12:42:11.434Z,9.40
2022-12-27T12:45:13.822Z,9.69
2022-12-27T12:47:54.116Z,9.65
2022-12-27T12:50:35.500Z,9.62
2022-12-27T12:53:19.846Z,9.55
2022-12-27T12:55:56.132Z,9.62
2022-12-27T12:58:38.827Z,9.35
2022-12-27T13:01:27.138Z,9.06
2022-12-27T13:04:09.713Z,8.86
2022-12-27T13:07:14.137Z,8.88
2022-12-27T13:09:52.105Z,8.47
2022-12-27T13:12:25.247Z,8.29
2022-12-27T13:15:13.236Z,8.24
2022-12-27T13:17:50.821Z,8.38
2022-12-27T13:20:30.471Z,8.24
2022-12-27T13:23:06.735Z,8.14
2022-12-27T13:25:41.468Z,8.06
2022-12-27T13:28:25.000Z,7.98
2022-12-27T13:30:57.336Z,7.87
2022-12-27T13:33:35.077Z,8.13
2022-12-27T13:36:13.856Z,8.31
2022-12-27T13:39:03.069Z,8.27
2022-12-27T13:41:38.537Z,8.07
2022-12-27T13:44:20.294Z,8.02
2022-12-27T13:47:26.717Z,8.32
2022-12-27T13:50:11.664Z,8.10
2022-12-27T13:52:54.462Z,7.99
2022-12-27T13:55:43.615Z,8.09
2022-12-27T13:58:47.534Z,7.99
2022-12-27T14:01:38.395Z,7.74
2022-12-27T14:04:26.181Z,7.83
2022-12-27T14:07:07.924Z,7.87
2022-12-27T14:09:48.266Z,8.03
2022-12-27T14:12:51.392Z,7.84
2022-12-27T14:15:21.430Z,7.18
2022-12-27T14:17:58.324Z,7.37
2022-12-27T14:20:37.727Z,7.32
2022-12-27T14:23:27.803Z,7.30
2022-12-27T14:26:29.487Z,7.24
2022-12-27T14:29:31.252Z,7.00
2022-12-27T14:32:48.134Z,7.02
2022-12-27T14:35:36.009Z,6.86
2022-12-27T14:38:36.839Z,6.66
2022-12-27T14:41:55.066Z,6.56
2022-12-27T14:45:09.590Z,6.50
2022-12-27T14:48:04.625Z,6.33
2022-12-27T14:50:49.296Z,6.11
2022-12-27T14:54:07.108Z,6.27
2022-12-27T14:56:38.769Z,6.21
2022-12-27T14:59:19.576Z,6.26
2022-12-27T15:01:57.270Z,6.21
2022-12-27T15:05:01.883Z,6.40
2022-12-27T15:07:55.211Z,6.38
2022-12-27T15:10:41.292Z,6.26
2022-12-27T15:13:15.068Z,6.11
2022-12-27T15:15:55.577Z,6.05
2022-12-27T15:18:44.697Z,6.05
2022-12-27T15:21:22.677Z,5.96
2022-12-27T15:23:54.150Z,5.78
2022-12-27T15:26:33.693Z,5.75
2022-12-27T15:29:12.657Z,5.52
2022-12-27T15:31:52.996Z,5.60
2022-12-27T15:34:35.711Z,5.67
2022-12-27T15:37:05.477Z,5.24
2022-12-27T15:39:50.046Z,5.72
2022-12-27T15:42:48.707Z,5.87
2022-12-27T15:45:30.464Z,5.81
2022-12-27T15:48:32.318Z,5.89
2022-12-27T15:51:06.335Z,5.70
2022-12-27T15:53:56.694Z,5.90
2022-12-27T15:56:57.909Z,5.91
2022-12-27T15:59:46.768Z,5.89
2022-12-27T16:02:34.088Z,5.78
2022-12-27T16:05:12.288Z,5.83
2022-12-27T16:07:46.115Z,5.87
2022-12-27T16:10:50.170Z,5.94
2022-12-27T16:13:27.591Z,5.94
2022-12-27T16:15:56.897Z,5.60
2022-12-27T16:18:59.369Z,6.22
2022-12-27T16:21:38.578Z,6.13
2022-12-27T16:24:11.810Z,5.90
2022-12-27T16:26:53.171Z,6.23
2022-12-27T16:29:23.191Z,5.91
2022-12-27T16:31:52.271Z,5.85
2022-12-27T16:34:24.170Z,5.99
2022-12-27T16:36:55.311Z,6.04
2022-12-27T16:39:36.936Z,6.08
2022-12-27T16:42:07.770Z,5.85
2022-12-27T16:44:48.343Z,6.04
2022-12-27T16:47:36.371Z,6.12
2022-12-27T16:50:21.432Z,5.95
2022-12-27T16:52:58.260Z,5.90
2022-12-27T16:55:49.270Z,6.02
2022-12-27T16:58:24.169Z,5.87
2022-12-27T17:00:53.448Z,5.58
2022-12-27T17:03:43.437Z,5.91
2022-12-27T17:06:49.168Z,5.99
2022-12-27T17:09:42.202Z,5.91
2022-12-27T17:12:23.858Z,5.73
2022-12-27T17:14:58.833Z,5.62
2022-12-27T17:17:27.478Z,5.30
2022-12-27T17:19:58.940Z,5.44
2022-12-27T17:22:34.125Z,5.33
2022-12-27T17:25:05.536Z,5.47
2022-12-27T17:27:51.658Z,5.55
2022-12-27T17:30:21.274Z,5.15
2022-12-27T17:33:30.774Z,5.47
2022-12-27T17:36:09.590Z,5.29
2022-12-27T17:38:45.709Z,5.37
2022-12-27T17:41:44.872Z,5.37
2022-12-27T17:44:36.358Z,5.23
2022-12-27T17:47:37.182Z,5.54
2022-12-27T17:50:07.539Z,5.19
2022-12-27T17:52:53.646Z,4.89
2022-12-27T17:55:52.564Z,5.14
2022-12-27T17:58:23.569Z,5.23
2022-12-27T18:00:55.769Z,5.27
2022-12-27T18:03:26.213Z,5.04
2022-12-27T18:05:58.455Z,5.26
2022-12-27T18:08:29.160Z,5.10
2022-12-27T18:10:57.716Z,5.06
2022-12-27T18:13:31.229Z,5.29
2022-12-27T18:15:59.548Z,4.72
2022-12-27T18:18:30.125Z,5.02
2022-12-27T18:20:59.816Z,4.77
2022-12-27T18:23:28.713Z,4.79
2022-12-27T18:25:59.197Z,4.94
2022-12-27T18:28:33.358Z,4.92
2022-12-27T18:31:05.945Z,5.10
2022-12-27T18:33:35.977Z,4.98
2022-12-27T18:36:06.087Z,4.94
2022-12-27T18:38:36.750Z,5.03
2022-12-27T18:41:06.533Z,4.97
2022-12-27T18:43:36.786Z,5.04
2022-12-27T18:46:05.519Z,4.66
2022-12-27T18:48:36.504Z,4.88
2022-12-27T18:51:05.102Z,4.68
2022-12-27T18:53:35.653Z,4.75
2022-12-27T18:56:06.635Z,5.03
2022-12-27T18:58:36.478Z,5.06
2022-12-27T19:01:06.236Z,5.02
2022-12-27T19:03:40.442Z,4.79
2022-12-27T19:06:11.023Z,5.09
2022-12-27T19:08:41.074Z,5.05
2022-12-27T19:11:09.390Z,4.64
2022-12-27T19:13:45.713Z,4.96
2022-12-27T19:16:24.899Z,4.92
2022-12-27T19:18:55.228Z,4.53
2022-12-27T19:21:30.648Z,4.56
2022-12-27T19:24:00.011Z,4.03
2022-12-27T19:26:33.929Z,4.32
2022-12-27T19:29:08.640Z,4.30
2022-12-27T19:31:37.377Z,3.98
2022-12-27T19:34:09.449Z,4.20
2022-12-27T19:36:39.990Z,4.13
2022-12-27T19:39:19.655Z,4.01
2022-12-27T19:41:48.287Z,3.84
2022-12-27T19:44:18.467Z,3.92
2022-12-27T19:46:46.864Z,3.58
2022-12-27T19:49:40.854Z,3.53
2022-12-27T19:52:03.875Z,3.61
2022-12-27T19:54:44.508Z,3.72
2022-12-27T19:57:22.458Z,3.64
2022-12-27T19:59:52.333Z,3.84
2022-12-27T20:02:21.513Z,3.55
2022-12-27T20:04:50.182Z,3.53
2022-12-27T20:07:21.974Z,3.84
2022-12-27T20:09:50.774Z,3.44
2022-12-27T20:12:18.994Z,3.38
2022-12-27T20:28:34.857Z,3.49
2022-12-27T20:31:07.493Z,3.63
2022-12-27T20:34:39.853Z,3.74
2022-12-27T20:37:09.064Z,3.31
2022-12-27T20:39:37.949Z,3.38
2022-12-27T20:42:06.792Z,3.34
2022-12-27T20:44:36.524Z,3.73
2022-12-27T20:47:05.061Z,3.50
2022-12-27T20:49:33.428Z,3.60
2022-12-27T20:52:01.976Z,3.68
2022-12-27T20:54:30.326Z,3.67
2022-12-27T20:56:59.603Z,3.60
2022-12-27T20:59:28.090Z,3.67
2022-12-27T21:01:58.994Z,3.91
2022-12-27T21:04:27.975Z,3.68
2022-12-27T21:06:57.045Z,3.77
2022-12-27T21:09:25.288Z,3.73
2022-12-27T21:11:54.106Z,3.83
2022-12-27T21:14:22.348Z,3.74
2022-12-27T21:16:51.458Z,3.89
2022-12-27T21:19:21.320Z,4.05
2022-12-27T21:21:49.811Z,3.74
2022-12-27T21:24:18.032Z,3.80
2022-12-27T21:26:47.850Z,3.85
2022-12-27T21:29:19.398Z,3.78
2022-12-27T21:31:48.014Z,3.77
2022-12-27T21:34:16.865Z,3.79
2022-12-27T21:36:46.837Z,4.24
2022-12-27T21:39:16.075Z,3.92
2022-12-27T21:41:44.725Z,3.89
2022-12-27T21:44:13.562Z,3.84
2022-12-27T21:46:43.899Z,4.12
2022-12-27T21:49:13.833Z,4.35
2022-12-27T21:51:43.572Z,4.14
2022-12-27T21:54:14.059Z,4.23
2022-12-27T21:56:42.897Z,4.18
2022-12-27T21:59:12.176Z,4.10
2022-12-27T22:01:51.485Z,4.27
2022-12-27T22:04:21.552Z,4.14
2022-12-27T22:06:50.480Z,4.10
2022-12-27T22:09:20.238Z,4.14
2022-12-27T22:11:49.487Z,4.09
2022-12-27T22:14:23.369Z,4.06
2022-12-27T22:16:53.576Z,3.94
2022-12-27T22:19:22.050Z,4.02
2022-12-27T22:21:50.644Z,4.07
2022-12-27T22:24:20.420Z,4.37
2022-12-27T22:26:50.517Z,4.09
2022-12-27T22:29:19.130Z,4.17
2022-12-27T22:31:47.706Z,4.13
2022-12-27T22:34:15.957Z,4.09
2022-12-27T22:36:44.709Z,4.07
2022-12-27T22:39:13.056Z,4.02
2022-12-27T22:41:43.096Z,4.46
2022-12-27T22:44:13.554Z,4.43
2022-12-27T22:47:15.863Z,4.25
2022-12-27T22:49:31.718Z,4.42
2022-12-27T22:52:00.237Z,4.26
2022-12-27T22:55:05.114Z,4.26
2022-12-27T22:57:18.351Z,4.60
2022-12-27T22:59:46.658Z,4.32
2022-12-27T23:02:15.194Z,4.28
2022-12-27T23:04:43.618Z,4.33
2022-12-27T23:07:12.146Z,4.26
2022-12-27T23:09:43.397Z,4.26
2022-12-27T23:12:12.754Z,4.25
2022-12-27T23:14:42.407Z,4.40
2022-12-27T23:17:11.636Z,4.22
2022-12-27T23:19:40.138Z,4.14
2022-12-27T23:22:08.990Z,4.12
2022-12-27T23:24:37.308Z,4.00
2022-12-27T23:27:05.784Z,3.94
2022-12-27T23:29:34.126Z,3.85
2022-12-27T23:32:04.101Z,4.23
2022-12-27T23:34:32.325Z,3.86
2022-12-27T23:37:01.269Z,4.12
2022-12-27T23:39:29.661Z,4.01
2022-12-27T23:41:58.154Z,3.92
2022-12-27T23:44:32.911Z,3.95
2022-12-27T23:47:06.236Z,4.24
2022-12-27T23:49:35.899Z,4.00
2022-12-27T23:52:04.803Z,3.95
2022-12-27T23:54:33.823Z,3.86
2022-12-27T23:57:22.117Z,3.99
2022-12-27T23:59:52.109Z,4.02
